You are listening to:
KJFK D-ATIS - New York, New York, United States

KJFK 251651Z 18007KT 10SM OVC019 17/14 A3025 RMK AO2 SLP241 T01720144

If stream doesn't start automatically press the play button
If stream stops then reload player then press play